Time;durP1;ratioP1;P1;durP2;ratioP2;P2;SDS_P1;SDS_P2;PMS_P1;PMS_P2;Temp;Humidity;BMP_temperature;BMP_pressure;BME280_temperature;BME280_humidity;BME280_pressure;Samples;Min_cycle;Max_cycle;Signal;HPM_P1;HPM_P2
2023/05/29 00:02:21;;;;;;;6.30;2.78;;;;;;;13.62;100.00;101212.91;6247024;28;20121;-90
2023/05/29 00:05:24;;;;;;;8.00;3.72;;;;;;;13.59;100.00;101211.38;6242901;28;20046;-90
2023/05/29 00:08:25;;;;;;;6.93;3.42;;;;;;;13.49;100.00;101213.06;6245417;28;20044;-90
2023/05/29 00:11:27;;;;;;;7.45;2.90;;;;;;;13.45;100.00;101217.69;6246351;28;20381;-90
2023/05/29 00:14:28;;;;;;;9.38;3.63;;;;;;;13.38;100.00;101223.50;6240619;28;20498;-89
2023/05/29 00:17:37;;;;;;;7.15;3.33;;;;;;;13.33;100.00;101223.88;6246223;28;20041;-89
2023/05/29 00:20:39;;;;;;;7.57;2.90;;;;;;;13.27;100.00;101229.56;6248819;28;20103;-89
2023/05/29 00:23:41;;;;;;;8.05;2.97;;;;;;;13.25;100.00;101232.25;6243724;28;20038;-90
2023/05/29 00:26:45;;;;;;;8.10;3.33;;;;;;;13.19;100.00;101232.75;6240427;28;20476;-90
2023/05/29 00:29:47;;;;;;;11.25;3.78;;;;;;;13.15;100.00;101237.34;6248878;28;20061;-90
2023/05/29 00:32:49;;;;;;;6.30;3.17;;;;;;;13.12;100.00;101242.78;6250108;28;20527;-89
2023/05/29 00:35:51;;;;;;;9.15;3.50;;;;;;;13.04;100.00;101239.13;6245032;28;20403;-89
2023/05/29 00:38:53;;;;;;;5.25;2.95;;;;;;;12.99;100.00;101243.84;6249793;28;20116;-89
2023/05/29 00:41:55;;;;;;;6.10;2.80;;;;;;;12.93;100.00;101245.16;6248957;28;20037;-90
2023/05/29 00:44:56;;;;;;;7.40;3.00;;;;;;;12.92;100.00;101253.91;6248841;28;20037;-90
2023/05/29 00:47:58;;;;;;;7.35;3.03;;;;;;;12.84;100.00;101256.25;6251464;28;20040;-89
2023/05/29 00:51:01;;;;;;;5.28;2.50;;;;;;;12.79;100.00;101253.19;6253417;28;20549;-90
2023/05/29 00:54:06;;;;;;;7.70;2.50;;;;;;;12.80;100.00;101262.66;6254862;28;20063;-90
2023/05/29 00:57:09;;;;;;;5.60;2.65;;;;;;;12.67;100.00;101263.56;6246087;28;20526;-89
2023/05/29 01:00:13;;;;;;;5.22;2.80;;;;;;;12.62;100.00;101264.84;6252536;28;20060;-89
2023/05/29 01:03:18;;;;;;;7.03;2.70;;;;;;;12.57;100.00;101260.03;6236813;28;20062;-89
2023/05/29 01:06:21;;;;;;;6.25;2.47;;;;;;;12.56;100.00;101257.53;6256449;28;20525;-89
2023/05/29 01:09:22;;;;;;;6.63;2.88;;;;;;;12.50;100.00;101258.84;6252302;28;20521;-89
2023/05/29 01:12:38;;;;;;;6.80;2.38;;;;;;;12.51;100.00;101260.47;6265914;28;20045;-89
2023/05/29 01:15:49;;;;;;;9.13;2.65;;;;;;;12.44;100.00;101264.47;6245934;28;20056;-89
2023/05/29 01:19:03;;;;;;;6.05;2.38;;;;;;;12.34;100.00;101268.69;6246910;28;20056;-89
2023/05/29 01:22:15;;;;;;;6.43;2.08;;;;;;;12.31;100.00;101277.53;6244423;28;20188;-89
2023/05/29 01:25:29;;;;;;;6.35;2.25;;;;;;;12.22;100.00;101268.69;6250614;28;20500;-89
2023/05/29 01:28:39;;;;;;;5.35;2.20;;;;;;;12.17;100.00;101265.56;6246939;28;20045;-89
2023/05/29 01:31:44;;;;;;;6.50;2.47;;;;;;;12.12;100.00;101266.84;6245877;28;20104;-90
2023/05/29 01:34:46;;;;;;;7.15;2.63;;;;;;;12.07;100.00;101273.22;6248582;28;20060;-89
2023/05/29 01:37:47;;;;;;;7.78;2.30;;;;;;;12.05;100.00;101272.50;6250763;28;20041;-89
2023/05/29 01:40:50;;;;;;;10.98;2.60;;;;;;;12.00;100.00;101271.19;6241080;28;20047;-89
2023/05/29 01:43:53;;;;;;;6.95;3.08;;;;;;;11.93;100.00;101280.38;6253732;28;20051;-89
2023/05/29 01:46:54;;;;;;;6.63;2.30;;;;;;;11.91;100.00;101284.84;6249550;28;20375;-89
2023/05/29 01:49:57;;;;;;;9.23;2.65;;;;;;;11.84;100.00;101277.44;6250653;28;20041;-89
2023/05/29 01:52:59;;;;;;;7.05;2.35;;;;;;;11.80;100.00;101283.81;6245366;28;20040;-89
2023/05/29 01:56:01;;;;;;;5.93;2.25;;;;;;;11.82;100.00;101284.50;6238090;28;20049;-89
2023/05/29 01:59:04;;;;;;;5.25;2.70;;;;;;;11.77;100.00;101286.59;6251105;28;20124;-89
2023/05/29 02:02:09;;;;;;;7.18;2.38;;;;;;;11.73;100.00;101292.16;6240943;28;20053;-89
2023/05/29 02:05:11;;;;;;;11.13;2.60;;;;;;;11.70;100.00;101295.78;6245388;28;20045;-88
2023/05/29 02:08:13;;;;;;;6.75;2.38;;;;;;;11.66;100.00;101285.75;6243923;28;20551;-89
2023/05/29 02:11:15;;;;;;;7.22;2.47;;;;;;;11.61;100.00;101299.84;6242982;28;20048;-89
2023/05/29 02:14:16;;;;;;;6.40;2.28;;;;;;;11.56;100.00;101298.53;6248423;28;20051;-89
2023/05/29 02:17:19;;;;;;;4.40;2.53;;;;;;;11.51;100.00;101295.44;6248261;28;20536;-89
2023/05/29 02:20:21;;;;;;;6.07;2.00;;;;;;;11.45;100.00;101301.03;6252719;28;20164;-89
2023/05/29 02:23:23;;;;;;;9.50;2.42;;;;;;;11.39;100.00;101299.72;6248501;28;20102;-89
2023/05/29 02:26:25;;;;;;;6.50;2.55;;;;;;;11.35;100.00;101303.44;6238912;28;20183;-89
2023/05/29 02:29:27;;;;;;;7.63;2.55;;;;;;;11.27;100.00;101301.38;6246169;28;20041;-89
2023/05/29 02:32:29;;;;;;;5.95;2.10;;;;;;;11.25;100.00;101298.06;6247721;28;20045;-89
2023/05/29 02:35:31;;;;;;;6.60;2.40;;;;;;;11.20;100.00;101300.16;6242030;28;20045;-89
2023/05/29 02:38:33;;;;;;;5.72;2.28;;;;;;;11.21;100.00;101301.81;6247406;28;20045;-88
2023/05/29 02:41:38;;;;;;;7.30;2.53;;;;;;;11.18;100.00;101307.22;6247507;28;20048;-89
2023/05/29 02:44:40;;;;;;;7.82;2.70;;;;;;;11.11;100.00;101305.97;6239362;28;20049;-89
2023/05/29 02:47:42;;;;;;;8.52;2.40;;;;;;;11.09;100.00;101313.84;6256059;28;20147;-89
2023/05/29 02:50:45;;;;;;;7.85;2.42;;;;;;;11.05;100.00;101299.44;6239039;28;20081;-89
2023/05/29 02:53:48;;;;;;;9.95;2.97;;;;;;;11.02;100.00;101307.44;6247521;28;20426;-89
2023/05/29 02:56:50;;;;;;;6.18;2.22;;;;;;;10.95;100.00;101301.81;6245353;28;20041;-89
2023/05/29 02:59:52;;;;;;;7.35;2.35;;;;;;;10.89;100.00;101310.03;6246408;28;20506;-89
2023/05/29 03:02:55;;;;;;;6.85;2.65;;;;;;;10.94;100.00;101297.59;6236309;28;20057;-89
2023/05/29 03:05:56;;;;;;;10.65;2.38;;;;;;;10.93;100.00;101310.63;6245479;28;20509;-89
2023/05/29 03:08:59;;;;;;;7.00;2.40;;;;;;;10.93;100.00;101313.22;6244461;28;20112;-88
2023/05/29 03:12:01;;;;;;;9.50;2.47;;;;;;;10.88;100.00;101305.78;6244832;28;20033;-88
2023/05/29 03:15:03;;;;;;;9.18;2.58;;;;;;;10.87;100.00;101306.72;6247610;28;20069;-88
2023/05/29 03:18:06;;;;;;;7.38;1.85;;;;;;;10.84;100.00;101308.69;6244218;28;20423;-89
2023/05/29 03:21:09;;;;;;;9.68;2.15;;;;;;;10.85;100.00;101305.97;6229135;28;20087;-89
2023/05/29 03:24:15;;;;;;;5.85;2.13;;;;;;;10.85;100.00;101305.97;6229114;28;20057;-88
2023/05/29 03:27:17;;;;;;;5.75;2.20;;;;;;;10.84;100.00;101306.94;6227743;28;20541;-88
2023/05/29 03:30:21;;;;;;;5.70;1.83;;;;;;;10.80;100.00;101309.81;6240724;28;20107;-88
2023/05/29 03:33:24;;;;;;;8.60;2.50;;;;;;;10.83;100.00;101319.97;6238505;28;20037;-88
2023/05/29 03:36:52;;;;;;;3.70;2.15;;;;;;;10.78;100.00;101318.53;6195451;28;20049;-88
2023/05/29 03:39:56;;;;;;;8.20;2.70;;;;;;;10.76;100.00;101322.16;6190560;28;20096;-88
2023/05/29 03:42:58;;;;;;;7.95;2.25;;;;;;;10.82;100.00;101329.50;6197477;28;20148;-89
2023/05/29 03:46:02;;;;;;;9.32;2.38;;;;;;;10.83;100.00;101332.91;6176726;28;20556;-89
2023/05/29 03:49:07;;;;;;;7.35;2.28;;;;;;;10.98;100.00;101337.91;6171860;28;20049;-89
2023/05/29 03:52:10;;;;;;;8.40;2.60;;;;;;;11.08;100.00;101339.84;6198894;28;20042;-89
2023/05/29 03:55:14;;;;;;;6.38;2.25;;;;;;;11.19;100.00;101339.97;6188006;28;20043;-89
2023/05/29 03:58:16;;;;;;;6.55;2.25;;;;;;;11.30;100.00;101334.03;6175769;28;20057;-89
2023/05/29 04:01:18;;;;;;;6.28;2.50;;;;;;;11.39;100.00;101336.81;6177691;28;20050;-89
2023/05/29 04:04:20;;;;;;;6.57;2.17;;;;;;;11.49;100.00;101341.38;6198856;28;20053;-89
2023/05/29 04:07:22;;;;;;;8.60;2.72;;;;;;;11.48;100.00;101331.94;6192922;28;20236;-89
2023/05/29 04:10:24;;;;;;;10.15;2.88;;;;;;;11.54;100.00;101341.88;6190508;28;20050;-89
2023/05/29 04:13:26;;;;;;;5.15;2.53;;;;;;;11.61;100.00;101336.16;6218136;28;20546;-89
2023/05/29 04:16:28;;;;;;;8.23;2.17;;;;;;;11.61;100.00;101345.72;6246012;28;20049;-89
2023/05/29 04:19:30;;;;;;;5.93;2.60;;;;;;;11.69;100.00;101348.56;6251729;28;20048;-89
2023/05/29 04:22:35;;;;;;;6.35;2.45;;;;;;;11.71;100.00;101348.47;6248459;28;20502;-89
2023/05/29 04:25:37;;;;;;;12.18;2.95;;;;;;;11.84;100.00;101344.91;6248459;28;20036;-89
2023/05/29 04:28:39;;;;;;;11.45;2.80;;;;;;;11.88;100.00;101350.75;6248982;28;20407;-90
2023/05/29 04:31:41;;;;;;;4.93;2.40;;;;;;;11.93;100.00;101358.19;6245552;28;20499;-89
2023/05/29 04:34:43;;;;;;;8.98;2.72;;;;;;;11.93;100.00;101358.19;6251219;28;20051;-89
2023/05/29 04:37:48;;;;;;;7.15;2.55;;;;;;;11.94;100.00;101352.06;6249200;28;20577;-88
2023/05/29 04:40:50;;;;;;;7.75;2.53;;;;;;;11.95;100.00;101356.31;6247927;28;20464;-89
2023/05/29 04:43:55;;;;;;;7.28;2.40;;;;;;;11.92;100.00;101356.53;6252531;28;20039;-89
2023/05/29 04:47:02;;;;;;;10.30;2.55;;;;;;;11.87;100.00;101359.44;6233393;28;20041;-89
2023/05/29 04:50:05;;;;;;;8.85;2.67;;;;;;;11.88;100.00;101358.53;6248038;28;20037;-89
2023/05/29 04:53:07;;;;;;;11.10;2.50;;;;;;;11.80;100.00;101355.59;6247078;28;20046;-89
2023/05/29 04:56:09;;;;;;;8.07;2.72;;;;;;;11.73;100.00;101367.38;6236656;28;20494;-89
2023/05/29 04:59:12;;;;;;;10.23;2.67;;;;;;;11.67;100.00;101360.81;6245061;28;20045;-88
2023/05/29 05:02:14;;;;;;;6.40;2.47;;;;;;;11.62;100.00;101362.91;6252708;28;20038;-89
2023/05/29 05:05:15;;;;;;;8.50;2.33;;;;;;;11.58;100.00;101361.50;6249553;28;20104;-89
2023/05/29 05:08:17;;;;;;;8.80;2.45;;;;;;;11.55;100.00;101359.94;6253543;28;20091;-89
2023/05/29 05:11:22;;;;;;;6.70;2.33;;;;;;;11.53;100.00;101366.16;6250134;28;20045;-89
2023/05/29 05:14:24;;;;;;;11.70;3.15;;;;;;;11.46;100.00;101357.16;6250004;28;20045;-89
2023/05/29 05:17:26;;;;;;;9.32;2.75;;;;;;;11.49;100.00;101362.13;6252889;28;20418;-89
2023/05/29 05:20:28;;;;;;;8.57;2.50;;;;;;;11.53;100.00;101364.41;6252663;28;20052;-89
2023/05/29 05:23:33;;;;;;;7.47;2.60;;;;;;;11.54;100.00;101363.44;6247746;28;20053;-89
2023/05/29 05:26:50;;;;;;;9.65;2.88;;;;;;;11.56;100.00;101353.81;6245734;28;20500;-89
2023/05/29 05:29:51;;;;;;;10.90;2.75;;;;;;;11.60;100.00;101357.00;6243855;28;20068;-89
2023/05/29 05:32:54;;;;;;;13.35;3.00;;;;;;;11.65;100.00;101362.69;6243693;28;20526;-89
2023/05/29 05:35:57;;;;;;;8.20;2.75;;;;;;;11.71;100.00;101367.47;6246201;28;20045;-90
2023/05/29 05:38:59;;;;;;;7.60;2.67;;;;;;;11.80;100.00;101366.81;6230996;28;20338;-89
2023/05/29 05:42:01;;;;;;;12.25;2.63;;;;;;;11.91;100.00;101373.88;6236530;28;20642;-89
2023/05/29 05:45:21;;;;;;;12.32;2.80;;;;;;;11.95;100.00;101379.66;6245987;28;20152;-89
2023/05/29 05:48:23;;;;;;;9.57;3.30;;;;;;;11.94;100.00;101378.84;6233547;28;20509;-89
2023/05/29 05:51:25;;;;;;;10.35;2.92;;;;;;;12.02;100.00;101386.91;6246543;28;20057;-89
2023/05/29 05:54:27;;;;;;;9.18;2.92;;;;;;;12.05;100.00;101385.88;6252906;28;20041;-89
2023/05/29 05:57:29;;;;;;;9.80;2.92;;;;;;;12.15;100.00;101386.00;6247641;28;20049;-89
2023/05/29 06:00:31;;;;;;;12.35;2.90;;;;;;;12.17;100.00;101378.94;6246640;28;20197;-89
2023/05/29 06:03:34;;;;;;;9.68;2.75;;;;;;;12.22;100.00;101376.84;6243301;28;20099;-90
2023/05/29 06:06:39;;;;;;;8.30;2.55;;;;;;;12.29;100.00;101383.25;6248573;28;20050;-90
2023/05/29 06:09:43;;;;;;;7.15;2.25;;;;;;;12.32;100.00;101387.41;6227771;28;20064;-90
2023/05/29 06:12:45;;;;;;;10.48;2.85;;;;;;;12.40;100.00;101391.13;6248851;28;20148;-89
2023/05/29 06:15:55;;;;;;;8.80;2.35;;;;;;;12.49;100.00;101397.38;6254896;28;20056;-90
2023/05/29 06:18:58;;;;;;;10.43;2.97;;;;;;;12.56;100.00;101397.78;6230825;28;20096;-89
2023/05/29 06:22:01;;;;;;;6.90;2.45;;;;;;;12.62;100.00;101395.56;6249117;28;20050;-90
2023/05/29 06:25:06;;;;;;;8.48;3.17;;;;;;;12.70;100.00;101411.41;6251258;28;20037;-89
2023/05/29 06:28:10;;;;;;;8.13;2.70;;;;;;;12.71;100.00;101405.25;6237206;28;20503;-90
2023/05/29 06:31:12;;;;;;;11.48;3.53;;;;;;;12.71;100.00;101404.44;6250047;28;20049;-91
2023/05/29 06:34:14;;;;;;;8.82;2.30;;;;;;;12.76;100.00;101401.50;6221907;28;20052;-90
2023/05/29 06:37:16;;;;;;;9.00;2.50;;;;;;;12.80;100.00;101408.13;6247090;28;20493;-89
2023/05/29 06:40:18;;;;;;;14.20;2.95;;;;;;;12.82;100.00;101403.63;6248788;28;20087;-91
2023/05/29 06:43:19;;;;;;;9.80;2.95;;;;;;;12.86;100.00;101412.88;6255585;28;20070;-91
2023/05/29 06:46:23;;;;;;;13.80;2.92;;;;;;;12.96;100.00;101407.81;6245327;28;20053;-91
2023/05/29 06:49:24;;;;;;;9.18;2.72;;;;;;;13.00;100.00;101410.06;6248312;28;20050;-89
2023/05/29 06:52:26;;;;;;;9.52;2.47;;;;;;;12.97;100.00;101418.09;6251174;28;20060;-90
2023/05/29 06:56:00;;;;;;;6.93;2.53;;;;;;;13.05;100.00;101413.16;6190463;28;20055;-90
2023/05/29 06:59:04;;;;;;;9.63;2.50;;;;;;;13.14;100.00;101416.81;6197723;28;20530;-90
2023/05/29 07:02:06;;;;;;;9.07;2.50;;;;;;;13.21;100.00;101425.81;6193465;28;20178;-91
2023/05/29 07:05:08;;;;;;;8.77;2.53;;;;;;;13.36;100.00;101434.25;6180187;28;20053;-91
2023/05/29 07:08:11;;;;;;;10.27;2.78;;;;;;;13.44;100.00;101436.25;6178312;28;20046;-91
2023/05/29 07:11:13;;;;;;;14.07;2.58;;;;;;;13.45;100.00;101436.16;6189412;28;20165;-90
2023/05/29 07:14:15;;;;;;;14.88;3.08;;;;;;;13.51;100.00;101438.28;6179306;28;20611;-90
2023/05/29 07:17:19;;;;;;;12.02;2.85;;;;;;;13.52;100.00;101442.53;6196621;28;20574;-88
2023/05/29 07:20:28;;;;;;;11.57;2.65;;;;;;;13.46;100.00;101439.56;6195106;28;20145;-90
2023/05/29 07:23:29;;;;;;;11.65;2.88;;;;;;;13.49;100.00;101442.78;6188983;28;20048;-91
2023/05/29 07:26:32;;;;;;;7.30;2.35;;;;;;;13.55;100.00;101438.88;6154580;28;20053;-89
2023/05/29 07:29:34;;;;;;;10.40;2.80;;;;;;;13.59;100.00;101437.72;6174090;28;20145;-88
2023/05/29 07:32:35;;;;;;;9.60;2.47;;;;;;;13.57;100.00;101439.59;6238120;28;20134;-90
2023/05/29 07:35:38;;;;;;;9.38;2.50;;;;;;;13.68;100.00;101447.38;6232122;28;20090;-92
2023/05/29 07:38:40;;;;;;;11.63;2.08;;;;;;;13.91;100.00;101450.81;6261249;28;20045;-90
2023/05/29 07:41:42;;;;;;;12.23;2.83;;;;;;;14.05;100.00;101433.28;6247437;28;20139;-90
2023/05/29 07:44:45;;;;;;;6.32;2.00;;;;;;;14.15;100.00;101449.81;6232784;28;20042;-90
2023/05/29 07:47:47;;;;;;;12.75;2.58;;;;;;;14.21;100.00;101444.16;6248021;28;20042;-90
2023/05/29 07:50:52;;;;;;;14.90;2.80;;;;;;;14.26;100.00;101452.41;6251697;28;20052;-91
2023/05/29 07:53:54;;;;;;;8.18;2.53;;;;;;;14.27;100.00;101451.44;6249134;28;20187;-90
2023/05/29 07:56:59;;;;;;;8.00;2.22;;;;;;;14.37;100.00;101457.56;6228597;28;20045;-90
2023/05/29 08:00:07;;;;;;;7.45;2.47;;;;;;;14.58;100.00;101454.22;6247315;28;20048;-90
2023/05/29 08:03:19;;;;;;;6.47;2.35;;;;;;;14.70;100.00;101461.03;6242554;28;20226;-91
2023/05/29 08:07:01;;;;;;;8.20;2.13;;;;;;;14.92;100.00;101461.91;6162629;28;20061;-90
2023/05/29 08:10:05;;;;;;;11.65;2.53;;;;;;;15.02;100.00;101455.78;6174352;28;20568;-89
2023/05/29 08:13:07;;;;;;;9.88;2.20;;;;;;;15.00;100.00;101451.66;6166741;28;20061;-90
2023/05/29 08:16:10;;;;;;;10.07;2.35;;;;;;;14.97;100.00;101444.09;6161816;28;20050;-90
2023/05/29 08:19:13;;;;;;;13.88;3.20;;;;;;;14.95;100.00;101444.22;6169322;28;20054;-89
2023/05/29 08:22:15;;;;;;;9.18;2.42;;;;;;;14.89;100.00;101442.13;6168575;28;20220;-90
2023/05/29 08:25:16;;;;;;;10.02;2.10;;;;;;;15.02;100.00;101442.75;6167636;28;20054;-91
2023/05/29 08:28:18;;;;;;;9.48;2.63;;;;;;;15.15;100.00;101452.97;6161411;28;20039;-91
2023/05/29 08:31:20;;;;;;;9.40;2.33;;;;;;;15.24;100.00;101444.41;6169308;28;20078;-91
2023/05/29 08:34:22;;;;;;;12.85;2.30;;;;;;;15.23;100.00;101445.38;6162409;28;20818;-91
2023/05/29 08:37:26;;;;;;;8.75;2.03;;;;;;;15.33;100.00;101449.78;6192122;28;20049;-90
2023/05/29 08:40:27;;;;;;;8.70;2.53;;;;;;;15.49;100.00;101450.97;6231802;28;20368;-90
2023/05/29 08:43:31;;;;;;;5.30;1.95;;;;;;;15.55;100.00;101451.41;6247337;28;20041;-91
2023/05/29 08:46:33;;;;;;;7.22;2.50;;;;;;;15.55;100.00;101444.41;6250037;28;20037;-91
2023/05/29 08:49:49;;;;;;;8.80;2.88;;;;;;;15.61;100.00;101450.91;6246393;28;20143;-91
2023/05/29 08:52:52;;;;;;;7.07;1.98;;;;;;;15.67;100.00;101451.19;6245156;28;20034;-91
2023/05/29 08:55:55;;;;;;;8.70;1.92;;;;;;;15.68;100.00;101457.25;6250937;28;20029;-90
2023/05/29 08:58:57;;;;;;;8.85;2.20;;;;;;;15.75;100.00;101453.19;6245473;28;20048;-91
2023/05/29 09:01:59;;;;;;;4.68;2.03;;;;;;;15.85;100.00;101453.19;6241778;28;20045;-91
2023/05/29 09:05:01;;;;;;;7.68;2.25;;;;;;;15.94;100.00;101452.41;6255317;28;20719;-91
2023/05/29 09:08:04;;;;;;;7.28;2.30;;;;;;;16.03;100.00;101461.25;6220089;28;20049;-92
2023/05/29 09:11:06;;;;;;;6.95;1.55;;;;;;;16.11;100.00;101464.81;6221197;28;20057;-91
2023/05/29 09:14:32;;;;;;;8.95;2.47;;;;;;;16.20;100.00;101463.19;6246884;28;20685;-91
2023/05/29 09:17:34;;;;;;;6.10;2.10;;;;;;;16.25;100.00;101460.19;6243165;28;20037;-92
2023/05/29 09:20:36;;;;;;;5.40;1.73;;;;;;;16.24;100.00;101454.13;6245944;28;20033;-91
2023/05/29 09:23:39;;;;;;;6.57;2.30;;;;;;;16.40;100.00;101458.81;6242744;28;20072;-91
2023/05/29 09:26:49;;;;;;;6.68;1.90;;;;;;;16.47;100.00;101462.56;6242511;28;20561;-89
2023/05/29 09:29:51;;;;;;;6.50;2.10;;;;;;;16.54;100.00;101471.47;6240498;28;20683;-89
2023/05/29 09:32:55;;;;;;;5.47;2.03;;;;;;;16.49;100.00;101478.91;6247326;28;20124;-90
2023/05/29 09:35:59;;;;;;;7.40;1.70;;;;;;;16.50;100.00;101464.06;6249731;28;20080;-90
2023/05/29 09:39:03;;;;;;;6.43;2.28;;;;;;;16.63;100.00;101464.59;6245766;28;20040;-90
2023/05/29 09:42:18;;;;;;;10.02;2.20;;;;;;;16.60;100.00;101456.22;6243340;28;20523;-91
2023/05/29 09:45:21;;;;;;;6.03;1.92;;;;;;;16.66;100.00;101459.09;6245739;28;20494;-91
2023/05/29 09:48:24;;;;;;;7.15;2.20;;;;;;;16.69;100.00;101464.03;6250157;28;20054;-90
2023/05/29 09:51:25;;;;;;;6.72;2.20;;;;;;;16.76;100.00;101461.72;6243864;28;20073;-90
2023/05/29 09:54:32;;;;;;;6.65;1.88;;;;;;;16.91;100.00;101457.72;6251343;28;20037;-91
2023/05/29 09:57:35;;;;;;;8.55;2.03;;;;;;;17.10;100.00;101450.84;6248088;28;20046;-91
2023/05/29 10:00:36;;;;;;;7.53;2.00;;;;;;;17.19;100.00;101461.28;6242761;28;20114;-89
2023/05/29 10:03:39;;;;;;;5.25;1.80;;;;;;;17.31;100.00;101451.44;6240634;28;20042;-92
2023/05/29 10:06:46;;;;;;;6.55;1.98;;;;;;;17.57;100.00;101450.84;6237192;28;20052;-91
2023/05/29 10:09:53;;;;;;;5.18;1.90;;;;;;;17.72;100.00;101457.22;6247455;28;20119;-90
2023/05/29 10:12:55;;;;;;;6.90;2.42;;;;;;;17.52;100.00;101455.69;6246229;28;20494;-90
2023/05/29 10:15:59;;;;;;;7.60;2.40;;;;;;;17.55;100.00;101448.34;6244056;28;20581;-91
2023/05/29 10:19:07;;;;;;;7.60;2.25;;;;;;;17.72;100.00;101459.03;6245878;28;20502;-89
2023/05/29 10:22:10;;;;;;;8.27;2.13;;;;;;;17.69;100.00;101448.81;6238296;28;20067;-91
2023/05/29 10:25:13;;;;;;;7.72;2.08;;;;;;;17.55;100.00;101447.53;6243451;28;20037;-92
2023/05/29 10:28:15;;;;;;;6.00;2.13;;;;;;;17.61;100.00;101452.16;6231703;28;20050;-90
2023/05/29 10:31:24;;;;;;;10.52;2.40;;;;;;;17.53;100.00;101439.81;6249028;28;20049;-93
2023/05/29 10:34:39;;;;;;;5.75;1.85;;;;;;;17.55;100.00;101442.28;6244722;28;20427;-92
2023/05/29 10:37:47;;;;;;;7.78;2.75;;;;;;;17.53;100.00;101438.97;6244331;28;20029;-93
2023/05/29 10:40:49;;;;;;;5.80;2.22;;;;;;;17.56;100.00;101433.44;6244544;28;20051;-90
2023/05/29 10:43:50;;;;;;;6.95;1.90;;;;;;;17.62;100.00;101431.09;6242609;28;20041;-90
2023/05/29 10:46:52;;;;;;;11.23;2.67;;;;;;;17.71;100.00;101434.63;6249769;28;20621;-92
2023/05/29 10:50:00;;;;;;;5.22;2.25;;;;;;;17.77;100.00;101423.56;6242806;28;20037;-90
2023/05/29 10:53:02;;;;;;;8.38;2.25;;;;;;;17.80;100.00;101428.53;6243985;28;20476;-91
2023/05/29 10:56:08;;;;;;;7.50;1.92;;;;;;;17.94;100.00;101431.66;6242429;28;20159;-90
2023/05/29 10:59:10;;;;;;;6.32;2.00;;;;;;;17.99;100.00;101426.81;6250978;28;20045;-92
2023/05/29 11:02:18;;;;;;;9.90;2.60;;;;;;;17.94;100.00;101434.28;6242916;28;20052;-91
2023/05/29 11:05:27;;;;;;;5.43;2.17;;;;;;;17.81;100.00;101432.84;6239520;28;20045;-91
2023/05/29 11:08:41;;;;;;;8.13;2.00;;;;;;;17.84;100.00;101416.81;6238371;28;20164;-90
2023/05/29 11:11:43;;;;;;;4.85;1.90;;;;;;;17.98;100.00;101419.91;6246184;28;20045;-93
2023/05/29 11:14:56;;;;;;;6.43;2.15;;;;;;;18.15;100.00;101418.28;6244705;28;20377;-94
2023/05/29 11:18:05;;;;;;;8.90;2.25;;;;;;;18.19;100.00;101417.00;6255658;28;20613;-90
2023/05/29 11:21:23;;;;;;;6.97;2.30;;;;;;;18.30;100.00;101414.16;6245913;28;20041;-92
2023/05/29 11:24:27;;;;;;;8.98;2.42;;;;;;;18.52;100.00;101415.50;6246845;28;20049;-90
2023/05/29 11:27:29;;;;;;;7.40;2.00;;;;;;;18.76;100.00;101408.81;6249716;28;20037;-91
2023/05/29 11:30:31;;;;;;;5.18;2.10;;;;;;;19.01;100.00;101405.41;6242223;28;20141;-89
2023/05/29 11:33:36;;;;;;;6.18;2.00;;;;;;;19.14;100.00;101400.53;6241662;28;20415;-91
2023/05/29 11:36:37;;;;;;;8.20;2.22;;;;;;;19.28;100.00;101408.84;6245391;28;20493;-91
2023/05/29 11:39:40;;;;;;;4.68;1.92;;;;;;;19.22;100.00;101415.50;6246784;28;20444;-90
2023/05/29 11:42:48;;;;;;;7.60;2.35;;;;;;;19.07;100.00;101411.81;6248275;28;20218;-91
2023/05/29 11:45:49;;;;;;;8.45;2.10;;;;;;;19.11;100.00;101418.41;6238891;28;20095;-92
2023/05/29 11:48:51;;;;;;;5.18;1.90;;;;;;;19.12;98.93;101406.94;6245506;28;20041;-91
2023/05/29 11:51:53;;;;;;;6.50;2.53;;;;;;;19.20;100.00;101406.97;6243641;28;20053;-91
2023/05/29 11:55:09;;;;;;;6.45;2.05;;;;;;;19.49;100.00;101414.50;6240733;28;20045;-92
2023/05/29 11:58:11;;;;;;;6.88;2.13;;;;;;;19.89;100.00;101412.19;6211827;28;20653;-89
2023/05/29 12:01:16;;;;;;;4.82;2.25;;;;;;;19.95;90.27;101411.53;6249498;28;20480;-89
2023/05/29 12:04:18;;;;;;;5.90;1.80;;;;;;;19.85;95.18;101416.97;6237034;28;20049;-89
2023/05/29 12:07:21;;;;;;;6.65;2.47;;;;;;;19.88;90.57;101405.31;6245373;28;20041;-90
2023/05/29 12:10:23;;;;;;;9.18;2.28;;;;;;;19.93;100.00;101398.56;6244815;28;20068;-91
2023/05/29 12:13:25;;;;;;;7.25;2.17;;;;;;;20.08;92.84;101396.16;6247251;28;20038;-92
2023/05/29 12:16:34;;;;;;;5.28;2.28;;;;;;;20.36;96.91;101391.38;6245060;28;20048;-91
2023/05/29 12:19:36;;;;;;;7.45;2.38;;;;;;;20.52;98.56;101398.47;6230772;28;20480;-91
2023/05/29 12:22:39;;;;;;;7.60;2.35;;;;;;;20.43;94.83;101394.19;6276814;28;20140;-91
2023/05/29 12:25:42;;;;;;;7.38;2.95;;;;;;;20.38;87.00;101402.56;6251828;28;20140;-89
2023/05/29 12:28:48;;;;;;;6.72;2.28;;;;;;;20.51;90.12;101398.63;6239041;28;20810;-91
2023/05/29 12:31:58;;;;;;;6.97;3.10;;;;;;;20.70;90.05;101394.88;6241312;28;20163;-91
2023/05/29 12:35:00;;;;;;;4.32;1.90;;;;;;;20.99;83.25;101395.16;6252085;28;20487;-88
2023/05/29 12:38:05;;;;;;;7.20;2.42;;;;;;;21.08;86.15;101395.94;6250100;28;20613;-93
2023/05/29 12:41:07;;;;;;;8.68;2.28;;;;;;;21.37;87.68;101389.28;6237335;28;20048;-93
2023/05/29 12:44:08;;;;;;;5.80;2.20;;;;;;;21.77;82.04;101388.28;6247150;28;20045;-93
2023/05/29 12:47:13;;;;;;;6.93;2.75;;;;;;;22.01;80.55;101383.81;6258712;28;20067;-93
2023/05/29 12:50:26;;;;;;;5.10;2.13;;;;;;;21.90;74.15;101393.78;6246854;28;20046;-92
2023/05/29 12:53:30;;;;;;;6.80;2.30;;;;;;;21.92;75.10;101399.72;6251464;28;20045;-91
2023/05/29 12:56:31;;;;;;;5.45;2.30;;;;;;;22.08;72.50;101397.97;6251544;28;20495;-92
2023/05/29 12:59:33;;;;;;;6.78;1.98;;;;;;;22.31;78.75;101393.53;6247894;28;20044;-90
2023/05/29 13:02:35;;;;;;;6.90;2.03;;;;;;;22.38;60.17;101401.53;6255568;28;20095;-91
2023/05/29 13:05:37;;;;;;;9.98;2.72;;;;;;;22.45;64.88;101396.38;6252639;28;20328;-91
2023/05/29 13:08:39;;;;;;;8.18;2.10;;;;;;;22.31;64.71;101393.53;6240665;28;20041;-90
2023/05/29 13:11:40;;;;;;;8.50;2.42;;;;;;;22.32;74.55;101378.53;6244846;28;20338;-92
2023/05/29 13:14:42;;;;;;;6.95;2.20;;;;;;;22.34;62.90;101384.44;6245820;28;20533;-91
2023/05/29 13:17:44;;;;;;;7.43;2.50;;;;;;;22.17;57.06;101386.38;6245493;28;20049;-91
2023/05/29 13:20:46;;;;;;;6.22;2.15;;;;;;;22.26;57.75;101385.34;6250331;28;20044;-90
2023/05/29 13:23:48;;;;;;;7.95;2.70;;;;;;;22.30;53.37;101391.88;6246729;28;20037;-91
2023/05/29 13:26:50;;;;;;;4.50;1.92;;;;;;;22.34;56.67;101390.53;6247863;28;20034;-92
2023/05/29 13:29:53;;;;;;;7.07;2.20;;;;;;;22.54;55.97;101405.88;6247340;28;20048;-92
2023/05/29 13:32:57;;;;;;;5.68;2.40;;;;;;;22.95;55.06;101403.66;6240733;28;20038;-91
2023/05/29 13:35:58;;;;;;;4.97;1.90;;;;;;;23.16;52.95;101399.53;6261511;28;20057;-93
2023/05/29 13:39:01;;;;;;;4.55;2.00;;;;;;;23.46;46.96;101407.41;6252318;28;20546;-91
2023/05/29 13:42:02;;;;;;;5.13;1.92;;;;;;;23.52;44.89;101401.38;6250771;28;20064;-91
2023/05/29 13:45:06;;;;;;;5.97;1.83;;;;;;;23.47;46.28;101406.41;6241794;28;20054;-91
2023/05/29 13:48:08;;;;;;;4.57;1.95;;;;;;;23.52;47.27;101402.19;6246272;28;20044;-92
2023/05/29 13:51:10;;;;;;;5.28;1.67;;;;;;;23.70;43.58;101388.59;6244460;28;20042;-92
2023/05/29 13:54:12;;;;;;;5.47;2.20;;;;;;;23.74;42.55;101381.13;6235388;28;20079;-92
2023/05/29 13:57:14;;;;;;;4.60;1.77;;;;;;;23.67;39.56;101382.84;6248874;28;20049;-90
2023/05/29 14:00:17;;;;;;;6.63;2.30;;;;;;;23.92;42.63;101372.78;6250168;28;20060;-93
2023/05/29 14:03:21;;;;;;;3.70;1.85;;;;;;;24.18;43.04;101394.19;6247373;28;20033;-92
2023/05/29 14:06:23;;;;;;;3.97;1.95;;;;;;;24.16;42.41;101382.16;6250880;28;20036;-92